Terminal Aerodrome Forecast
Issued by NWS Spokane, WA

Current Version | Previous Version | Text Only | Print | Product List | Glossary On
Versions: 1 2 3 4 5 6 7 8 9 10 11 12 13 14 15 16 17 18 19 20 21 22 23 24
000
FTUS46 KOTX 192320
TAFGEG
TAF
KGEG 192320Z 2000/2024 22011KT P6SM SCT070 BKN200
     FM200300 22004KT P6SM SCT200
     FM200700 09003KT P6SM FEW200
     FM201500 06007KT P6SM FEW200=

USA.gov is the U.S. government's official web portal to all federal, state and local government web resources and services.